Shao Shan 5 — VRKO9 — position and weather

sailwx.info

Track history (hours):
 
Tides and Currents Weather Stations Pressure Air Temp Water Temp Dewpoint Dewpoint Depression Visibility Wind Speed Wind Dir Waves Ship Positions

Shao Shan 5

Last reported at 2015-Jan-13 22:32 UTC. Time now 2015-Feb-01 00:30 UTC.
Position N 36°34' E 015°15'.
Warning: this ship's position is 18 days out of date.

Length 225 m; draft 11.9 m.

Type: Cargo ship. MMSI: 477325700.

Date/timePositionNaut miles runAvg speedWind from/ knotsBaromVisibWave heightAir tempDewpointWater temp
2015-Jan-13 22:32N 36°34' E 015°15'1111.6
2015-Jan-13 21:34N 36°34' E 015°01'1211.9
2015-Jan-13 20:33N 36°36' E 014°46'1212.2
2015-Jan-13 19:33N 36°38' E 014°31'1312.6
2015-Jan-13 18:33N 36°40' E 014°16'1212.4
2015-Jan-13 17:33N 36°43' E 014°01'1212.2
2015-Jan-13 16:33N 36°45' E 013°46'  
2015-Jan-11 06:14N 36°36' W 000°09'812.2
2015-Jan-11 05:33N 36°35' W 000°19'1212.1
2015-Jan-11 04:33N 36°33' W 000°34'1212.1
2015-Jan-11 03:33N 36°32' W 000°49'1212.5
2015-Jan-11 02:33N 36°30' W 001°05'2512.2
2015-Jan-11 00:32N 36°27' W 001°35'17611.8
2015-Jan-10 09:33N 36°02' W 005°11'1312.6
2015-Jan-10 08:34N 35°58' W 005°26'  
2015-Jan-07 06:32N 37°11' W 021°47'1111.6
2015-Jan-07 05:33N 37°12' W 022°01'1211.2
2015-Jan-07 04:30N 37°13' W 022°16'1111.3
2015-Jan-07 03:31N 37°14' W 022°29'1111.1
2015-Jan-07 02:31N 37°15' W 022°43'1111.2
2015-Jan-07 01:34N 37°16' W 022°57'1111.0
2015-Jan-07 00:33N 37°17' W 023°11'1111.2
2015-Jan-06 23:32N 37°18' W 023°25'1111.2
2015-Jan-06 22:34N 37°19' W 023°39'1111.2
2015-Jan-06 21:33N 37°20' W 023°53'1111.4
2015-Jan-06 20:33N 37°21' W 024°07'1111.5
2015-Jan-06 19:33N 37°22' W 024°21'1111.2
2015-Jan-06 18:33N 37°23' W 024°36'1111.3
2015-Jan-06 17:33N 37°24' W 024°50'1211.6
2015-Jan-06 16:34N 37°25' W 025°04'1211.7
2015-Jan-06 15:33N 37°24' W 025°19'1111.4
2015-Jan-06 14:33N 37°24' W 025°33'1111.2
2015-Jan-06 13:34N 37°23' W 025°47'1111.3
2015-Jan-06 12:33N 37°22' W 026°01'1111.2
2015-Jan-06 11:34N 37°21' W 026°15'1111.0
2015-Jan-06 10:33N 37°21' W 026°29'1110.9
2015-Jan-06 09:33N 37°20' W 026°43'1211.7
2015-Jan-06 08:33N 37°19' W 026°58'1110.9
2015-Jan-06 07:31N 37°19' W 027°12'1010.7
2015-Jan-06 06:33N 37°18' W 027°25'1111.0
2015-Jan-06 05:32N 37°17' W 027°39'1110.9
2015-Jan-06 04:33N 37°17' W 027°52'1111.0
2015-Jan-06 03:33N 37°16' W 028°06'1111.0
2015-Jan-06 02:33N 37°15' W 028°20'1111.4
2015-Jan-06 01:33N 37°14' W 028°34'1111.2
2015-Jan-06 00:33N 37°14' W 028°48'  
Track history (hours):
 
Tides and Currents Weather Stations Pressure Air Temp Water Temp Dewpoint Dewpoint Depression Visibility Wind Speed Wind Dir Waves Ship Positions

Shao Shan 5

Last reported at 2015-Jan-13 22:32 UTC. Time now 2015-Feb-01 00:30 UTC.
Position N 36°34' E 015°15'.
Warning: this ship's position is 18 days out of date.

Length 225 m; draft 11.9 m.

Type: Cargo ship. MMSI: 477325700.

Date/timePositionNaut miles runAvg speedWind from/ knotsBaromVisibWave heightAir tempDewpointWater temp
2015-Jan-13 22:32N 36°34' E 015°15'1111.6
2015-Jan-13 21:34N 36°34' E 015°01'1211.9
2015-Jan-13 20:33N 36°36' E 014°46'1212.2
2015-Jan-13 19:33N 36°38' E 014°31'1312.6
2015-Jan-13 18:33N 36°40' E 014°16'1212.4
2015-Jan-13 17:33N 36°43' E 014°01'1212.2
2015-Jan-13 16:33N 36°45' E 013°46'  
2015-Jan-11 06:14N 36°36' W 000°09'812.2
2015-Jan-11 05:33N 36°35' W 000°19'1212.1
2015-Jan-11 04:33N 36°33' W 000°34'1212.1
2015-Jan-11 03:33N 36°32' W 000°49'1212.5
2015-Jan-11 02:33N 36°30' W 001°05'2512.2
2015-Jan-11 00:32N 36°27' W 001°35'17611.8
2015-Jan-10 09:33N 36°02' W 005°11'1312.6
2015-Jan-10 08:34N 35°58' W 005°26'  
2015-Jan-07 06:32N 37°11' W 021°47'1111.6
2015-Jan-07 05:33N 37°12' W 022°01'1211.2
2015-Jan-07 04:30N 37°13' W 022°16'1111.3
2015-Jan-07 03:31N 37°14' W 022°29'1111.1
2015-Jan-07 02:31N 37°15' W 022°43'1111.2
2015-Jan-07 01:34N 37°16' W 022°57'1111.0
2015-Jan-07 00:33N 37°17' W 023°11'1111.2
2015-Jan-06 23:32N 37°18' W 023°25'1111.2
2015-Jan-06 22:34N 37°19' W 023°39'1111.2
2015-Jan-06 21:33N 37°20' W 023°53'1111.4
2015-Jan-06 20:33N 37°21' W 024°07'1111.5
2015-Jan-06 19:33N 37°22' W 024°21'1111.2
2015-Jan-06 18:33N 37°23' W 024°36'1111.3
2015-Jan-06 17:33N 37°24' W 024°50'1211.6
2015-Jan-06 16:34N 37°25' W 025°04'1211.7
2015-Jan-06 15:33N 37°24' W 025°19'1111.4
2015-Jan-06 14:33N 37°24' W 025°33'1111.2
2015-Jan-06 13:34N 37°23' W 025°47'1111.3
2015-Jan-06 12:33N 37°22' W 026°01'1111.2
2015-Jan-06 11:34N 37°21' W 026°15'1111.0
2015-Jan-06 10:33N 37°21' W 026°29'1110.9
2015-Jan-06 09:33N 37°20' W 026°43'1211.7
2015-Jan-06 08:33N 37°19' W 026°58'1110.9
2015-Jan-06 07:31N 37°19' W 027°12'1010.7
2015-Jan-06 06:33N 37°18' W 027°25'1111.0
2015-Jan-06 05:32N 37°17' W 027°39'1110.9
2015-Jan-06 04:33N 37°17' W 027°52'1111.0
2015-Jan-06 03:33N 37°16' W 028°06'1111.0
2015-Jan-06 02:33N 37°15' W 028°20'1111.4
2015-Jan-06 01:33N 37°14' W 028°34'1111.2
2015-Jan-06 00:33N 37°14' W 028°48'  

Dump ship's entire track history